Time;durP1;ratioP1;P1;durP2;ratioP2;P2;SDS_P1;SDS_P2;PMS_P1;PMS_P2;Temp;Humidity;BMP_temperature;BMP_pressure;BME280_temperature;BME280_humidity;BME280_pressure;Samples;Min_cycle;Max_cycle;Signal;HPM_P1;HPM_P2
2022/03/25 00:00:33;;;;;;;32.28;4.47;;;;;;;19.13;57.93;100595.94;7309614;19;136940;-37
2022/03/25 00:02:58;;;;;;;32.55;4.47;;;;;;;19.13;58.21;100598.56;7310326;19;129736;-33
2022/03/25 00:05:23;;;;;;;42.70;5.88;;;;;;;19.12;58.12;100594.25;7307717;19;133250;-43
2022/03/25 00:07:48;;;;;;;14.35;2.85;;;;;;;19.09;58.58;100584.03;7307989;19;129750;-43
2022/03/25 00:10:14;;;;;;;25.58;3.58;;;;;;;19.14;57.75;100592.41;7308676;19;157492;-38
2022/03/25 00:12:39;;;;;;;25.50;3.80;;;;;;;19.08;57.93;100579.78;7308059;19;155059;-35
2022/03/25 00:15:05;;;;;;;33.03;4.65;;;;;;;19.14;58.08;100581.97;7306910;19;140345;-41
2022/03/25 00:17:30;;;;;;;38.17;5.30;;;;;;;19.13;58.00;100577.72;7307770;19;130381;-40
2022/03/25 00:19:55;;;;;;;23.20;3.50;;;;;;;19.12;59.31;100581.22;7306373;19;159036;-40
2022/03/25 00:22:20;;;;;;;28.30;4.03;;;;;;;19.13;59.06;100582.91;7308154;19;154447;-35
2022/03/25 00:24:46;;;;;;;18.88;2.80;;;;;;;19.11;58.83;100584.78;7310117;19;128991;-36
2022/03/25 00:27:11;;;;;;;14.00;3.17;;;;;;;19.11;59.32;100590.00;7306550;19;159162;-35
2022/03/25 00:29:36;;;;;;;37.30;5.28;;;;;;;19.13;58.38;100588.13;7306221;19;129976;-38
2022/03/25 00:32:03;;;;;;;29.55;4.45;;;;;;;19.12;59.14;100585.63;7310424;19;129087;-38
2022/03/25 00:34:28;;;;;;;32.07;4.57;;;;;;;19.04;59.88;100573.06;7309083;19;130262;-35
2022/03/25 00:36:54;;;;;;;26.58;4.30;;;;;;;19.12;58.28;100580.41;7307860;19;130428;-39
2022/03/25 00:39:19;;;;;;;29.80;4.43;;;;;;;19.09;58.62;100575.38;7308726;19;129654;-39
2022/03/25 00:41:44;;;;;;;24.57;3.50;;;;;;;19.08;59.67;100578.94;7309174;19;154586;-37
2022/03/25 00:44:10;;;;;;;33.42;4.78;;;;;;;19.07;58.53;100577.28;7309052;19;129335;-36
2022/03/25 00:46:35;;;;;;;24.70;4.15;;;;;;;19.08;59.08;100574.56;7308879;19;130178;-43
2022/03/25 00:49:01;;;;;;;12.07;2.80;;;;;;;19.12;58.89;100576.03;7305308;19;155720;-38
2022/03/25 00:51:26;;;;;;;29.67;3.92;;;;;;;19.10;59.44;100572.69;7309420;19;128981;-33
2022/03/25 00:53:52;;;;;;;31.17;4.35;;;;;;;19.12;59.69;100580.41;7313876;19;129084;-41
2022/03/25 00:56:17;;;;;;;20.17;3.65;;;;;;;19.10;59.18;100572.69;7314878;19;149533;-42
2022/03/25 00:58:42;;;;;;;27.55;4.25;;;;;;;19.10;58.56;100575.31;7310923;19;154477;-36
2022/03/25 01:01:08;;;;;;;24.23;3.33;;;;;;;19.03;57.77;100563.59;7315696;19;128742;-38
2022/03/25 01:03:34;;;;;;;24.92;3.90;;;;;;;19.13;58.62;100571.66;7316463;19;130187;-32
2022/03/25 01:06:00;;;;;;;18.23;3.60;;;;;;;19.17;58.26;100575.75;7313610;19;130150;-38
2022/03/25 01:08:27;;;;;;;26.85;4.00;;;;;;;19.13;58.83;100576.88;7312558;19;129291;-38
2022/03/25 01:10:52;;;;;;;24.60;3.75;;;;;;;19.14;58.62;100568.94;7316167;19;130534;-42
2022/03/25 01:13:18;;;;;;;24.95;3.85;;;;;;;19.14;58.05;100565.50;7315601;19;129091;-40
2022/03/25 01:15:43;;;;;;;18.03;3.20;;;;;;;19.15;58.09;100573.25;7312598;19;160519;-41
2022/03/25 01:18:08;;;;;;;25.60;3.90;;;;;;;19.15;59.51;100572.41;7312405;19;158308;-39
2022/03/25 01:20:33;;;;;;;22.97;3.50;;;;;;;19.13;59.03;100572.50;7313801;19;154684;-40
2022/03/25 01:22:59;;;;;;;35.20;4.90;;;;;;;19.12;58.91;100578.63;7311867;19;154765;-36
2022/03/25 01:25:24;;;;;;;44.58;5.80;;;;;;;19.02;58.37;100561.91;7312020;19;160046;-40
2022/03/25 01:27:49;;;;;;;41.10;4.82;;;;;;;19.11;59.68;100574.38;7312340;19;129161;-38
2022/03/25 01:30:15;;;;;;;32.80;4.45;;;;;;;19.04;58.08;100562.66;7311566;19;129008;-38
2022/03/25 01:32:40;;;;;;;11.52;2.95;;;;;;;19.13;59.36;100575.09;7312891;19;154965;-40
2022/03/25 01:35:06;;;;;;;18.80;3.20;;;;;;;19.13;57.81;100574.25;7313316;19;148036;-42
2022/03/25 01:37:33;;;;;;;28.08;4.07;;;;;;;19.11;59.24;100574.38;7312159;19;129763;-41
2022/03/25 01:39:58;;;;;;;29.85;4.40;;;;;;;19.14;58.53;100578.53;7313842;19;129782;-36
2022/03/25 01:42:31;;;;;;;25.60;4.00;;;;;;;19.10;60.16;100567.50;7313423;19;129037;-43
2022/03/25 01:44:56;;;;;;;27.27;4.00;;;;;;;19.10;58.79;100572.69;7313835;19;130178;-40
2022/03/25 01:47:30;;;;;;;20.02;3.92;;;;;;;19.14;59.59;100568.94;7313172;19;131157;-41
2022/03/25 01:50:01;;;;;;;41.97;5.15;;;;;;;19.09;59.73;100564.94;7311070;19;129856;-38
2022/03/25 01:52:27;;;;;;;28.80;4.18;;;;;;;19.12;58.18;100568.19;7314220;19;129003;-36
2022/03/25 01:54:52;;;;;;;23.85;3.83;;;;;;;19.12;58.97;100570.00;7313723;19;129514;-38
2022/03/25 01:57:21;;;;;;;23.20;4.00;;;;;;;19.11;58.13;100569.16;7310841;19;145719;-41
2022/03/25 01:59:47;;;;;;;24.15;3.78;;;;;;;19.11;59.20;100568.31;7313327;19;128981;-38
2022/03/25 02:02:12;;;;;;;22.52;3.25;;;;;;;19.11;58.76;100566.53;7312375;19;130077;-37
2022/03/25 02:04:37;;;;;;;12.98;2.90;;;;;;;19.11;58.47;100563.94;7309275;19;158237;-37
2022/03/25 02:07:04;;;;;;;29.70;4.47;;;;;;;19.14;58.61;100562.88;7312087;19;152359;-36
2022/03/25 02:09:30;;;;;;;36.05;4.93;;;;;;;19.09;58.75;100565.78;7310475;19;129292;-39
2022/03/25 02:11:56;;;;;;;32.00;4.73;;;;;;;19.16;58.67;100561.03;7312906;19;129208;-37
2022/03/25 02:14:22;;;;;;;23.38;3.80;;;;;;;19.13;58.83;100559.47;7313780;19;129866;-41
2022/03/25 02:16:49;;;;;;;28.67;4.15;;;;;;;19.11;58.74;100563.94;7313057;19;129909;-38
2022/03/25 02:19:16;;;;;;;;;;;;;;;19.16;59.60;100561.03;7313051;19;129244;-36
2022/03/25 02:21:42;;;;;;;18.60;3.55;;;;;;;19.17;58.03;100560.91;7311141;19;129084;-39
2022/03/25 02:24:09;;;;;;;25.27;4.18;;;;;;;19.16;58.28;100554.03;7312383;19;130169;-40
2022/03/25 02:26:36;;;;;;;13.52;3.03;;;;;;;19.16;58.52;100556.66;7312043;19;129711;-39
2022/03/25 02:29:03;;;;;;;22.15;3.58;;;;;;;19.15;58.24;100546.34;7310793;19;131132;-39
2022/03/25 02:31:28;;;;;;;28.35;4.38;;;;;;;19.15;59.55;100560.22;7313411;19;130462;-37
2022/03/25 02:33:56;;;;;;;36.22;5.05;;;;;;;19.13;59.14;100551.66;7311531;19;129468;-43
2022/03/25 02:36:21;;;;;;;27.70;4.18;;;;;;;19.11;59.11;100557.88;7312565;19;129736;-37
2022/03/25 02:38:47;;;;;;;30.15;4.43;;;;;;;19.12;58.30;100557.78;7308825;19;154551;-40
2022/03/25 02:41:12;;;;;;;19.67;3.22;;;;;;;19.13;59.70;100569.03;7311945;19;154057;-35
2022/03/25 02:43:37;;;;;;;22.97;3.77;;;;;;;19.12;58.71;100560.38;7312309;19;150396;-41
2022/03/25 02:46:03;;;;;;;12.27;2.97;;;;;;;19.12;58.59;100560.38;7309517;19;159554;-39
2022/03/25 02:48:29;;;;;;;26.97;4.30;;;;;;;19.10;59.52;100566.66;7310524;19;129006;-40
2022/03/25 02:50:54;;;;;;;32.60;4.60;;;;;;;19.11;58.05;100565.69;7311733;19;128982;-42
2022/03/25 02:53:20;;;;;;;29.08;4.57;;;;;;;19.12;58.98;100563.00;7309023;19;158425;-41
2022/03/25 02:55:45;;;;;;;21.27;3.55;;;;;;;19.06;58.58;100555.56;7310751;19;130352;-40
2022/03/25 02:58:11;;;;;;;18.17;3.05;;;;;;;19.11;58.20;100561.31;7310456;19;128835;-38
2022/03/25 03:00:36;;;;;;;22.20;3.72;;;;;;;19.16;58.41;100566.22;7311929;19;128813;-35
2022/03/25 03:03:02;;;;;;;30.63;4.53;;;;;;;19.16;58.66;100564.47;7310316;19;158476;-40
2022/03/25 03:05:28;;;;;;;56.25;7.15;;;;;;;19.13;58.95;100572.50;7310242;19;129434;-41
2022/03/25 03:07:55;;;;;;;18.00;3.50;;;;;;;19.11;59.09;100563.94;7309014;19;131137;-43
2022/03/25 03:10:20;;;;;;;33.63;4.82;;;;;;;19.14;58.33;100568.09;7308647;19;129845;-41
2022/03/25 03:12:45;;;;;;;24.83;4.03;;;;;;;19.11;58.98;100563.94;7312013;19;130447;-40
2022/03/25 03:15:13;;;;;;;32.05;4.57;;;;;;;19.13;58.36;100572.50;7309241;19;130152;-35
2022/03/25 03:17:39;;;;;;;16.80;3.38;;;;;;;19.13;58.92;100562.06;7309808;19;129651;-40
2022/03/25 03:20:06;;;;;;;88.65;9.35;;;;;;;19.11;58.61;100568.31;7306353;19;129470;-40
2022/03/25 03:22:31;;;;;;;30.20;4.68;;;;;;;19.13;58.62;100571.66;7310303;19;130327;-40
2022/03/25 03:24:57;;;;;;;26.60;3.88;;;;;;;19.13;60.05;100567.28;7310994;19;129206;-41
2022/03/25 03:27:22;;;;;;;25.70;4.13;;;;;;;19.15;58.59;100568.03;7309471;19;130891;-38
2022/03/25 03:29:48;;;;;;;22.80;3.77;;;;;;;19.08;58.52;100564.13;7309354;19;153596;-42
2022/03/25 03:32:13;;;;;;;31.33;4.80;;;;;;;19.12;59.44;100570.81;7310548;19;130718;-40
2022/03/25 03:34:38;;;;;;;25.13;4.13;;;;;;;19.14;58.10;100568.94;7308871;19;158446;-42
2022/03/25 03:37:04;;;;;;;31.73;4.63;;;;;;;19.12;59.31;100572.59;7308418;19;155522;-43
2022/03/25 03:39:29;;;;;;;37.07;4.93;;;;;;;19.11;58.42;100571.75;7310640;19;129115;-40
2022/03/25 03:41:55;;;;;;;30.10;4.20;;;;;;;19.15;58.34;100570.63;7310131;19;130133;-40
2022/03/25 03:44:20;;;;;;;40.78;5.45;;;;;;;19.14;58.48;100574.16;7307700;19;147342;-39
2022/03/25 03:46:46;;;;;;;26.52;4.03;;;;;;;19.14;57.71;100568.09;7311043;19;129708;-40
2022/03/25 03:49:11;;;;;;;24.90;4.15;;;;;;;19.11;58.95;100571.75;7306178;19;154111;-38
2022/03/25 03:51:36;;;;;;;22.23;3.63;;;;;;;19.12;58.10;100576.03;7309092;19;129502;-40
2022/03/25 03:54:03;;;;;;;25.45;4.20;;;;;;;19.12;58.86;100576.03;7308628;19;159429;-41
2022/03/25 03:56:28;;;;;;;38.30;5.37;;;;;;;19.13;58.78;100574.25;7310482;19;130391;-40
2022/03/25 03:58:53;;;;;;;22.58;3.67;;;;;;;19.08;59.87;100579.78;7308119;19;142169;-40
2022/03/25 04:01:19;;;;;;;26.57;4.33;;;;;;;19.09;59.01;100581.44;7307989;19;159336;-38
2022/03/25 04:03:44;;;;;;;28.38;4.50;;;;;;;19.14;58.60;100589.78;7308802;19;151091;-41
2022/03/25 04:06:10;;;;;;;25.45;3.95;;;;;;;19.12;59.10;100586.44;7309265;19;130190;-37
2022/03/25 04:08:35;;;;;;;29.95;4.47;;;;;;;19.13;58.00;100579.47;7309568;19;130376;-40
2022/03/25 04:11:01;;;;;;;30.60;4.72;;;;;;;19.15;59.52;100580.22;7312256;19;158669;-37
2022/03/25 04:13:27;;;;;;;36.08;5.18;;;;;;;19.14;58.00;100581.97;7312208;19;129039;-38
2022/03/25 04:15:52;;;;;;;21.08;3.72;;;;;;;19.14;59.06;100592.41;7312151;19;141075;-40
2022/03/25 04:18:17;;;;;;;22.08;3.25;;;;;;;19.12;58.64;100586.44;7313516;19;129373;-39
2022/03/25 04:20:45;;;;;;;21.40;3.42;;;;;;;19.08;58.02;100574.56;7311380;19;130436;-38
2022/03/25 04:23:11;;;;;;;11.48;2.95;;;;;;;19.16;58.74;100587.94;7310800;19;158414;-39
2022/03/25 04:25:36;;;;;;;31.33;4.43;;;;;;;19.12;58.35;100586.44;7310881;19;128785;-36
2022/03/25 04:28:02;;;;;;;25.85;4.20;;;;;;;19.16;58.75;100585.31;7314284;19;152069;-41
2022/03/25 04:30:29;;;;;;;14.35;3.15;;;;;;;19.13;59.52;100585.53;7314637;19;130985;-42
2022/03/25 04:32:56;;;;;;;22.63;3.40;;;;;;;19.14;58.78;100589.78;7317959;19;130107;-41
2022/03/25 04:35:23;;;;;;;38.83;5.30;;;;;;;19.17;59.00;100591.38;7316895;19;129308;-41
2022/03/25 04:37:49;;;;;;;18.55;3.30;;;;;;;19.12;58.89;100591.66;7316509;19;131036;-36
2022/03/25 04:40:17;;;;;;;28.08;4.25;;;;;;;19.12;58.41;100591.66;7316798;19;129089;-36
2022/03/25 04:42:46;;;;;;;32.50;4.70;;;;;;;19.11;58.27;100592.59;7315312;19;130414;-42
2022/03/25 04:45:13;;;;;;;21.20;3.90;;;;;;;19.12;58.79;100596.88;7315507;19;128966;-41
2022/03/25 04:47:38;;;;;;;22.80;3.65;;;;;;;19.15;58.18;100601.91;7315603;19;129482;-35
2022/03/25 04:50:04;;;;;;;26.63;4.50;;;;;;;19.13;58.62;100598.56;7314608;19;129263;-37
2022/03/25 04:52:29;;;;;;;26.30;4.20;;;;;;;19.12;58.87;100607.28;7315365;19;131551;-35
2022/03/25 04:54:55;;;;;;;17.40;3.47;;;;;;;19.03;57.68;100584.44;7314513;19;129337;-45
2022/03/25 04:57:21;;;;;;;27.53;4.27;;;;;;;19.12;57.91;100607.28;7313566;19;141965;-38
2022/03/25 04:59:47;;;;;;;;;;;;;;;19.15;59.98;100601.91;7316223;19;130875;-39
2022/03/25 05:02:13;;;;;;;23.58;3.55;;;;;;;19.11;58.88;100604.78;7309840;19;130415;-41
2022/03/25 05:04:38;;;;;;;20.88;3.83;;;;;;;19.10;58.44;100603.97;7313301;19;130988;-40
2022/03/25 05:07:03;;;;;;;38.10;4.70;;;;;;;19.13;59.03;100603.78;7310841;19;154232;-41
2022/03/25 05:09:28;;;;;;;49.28;6.10;;;;;;;19.11;57.86;100610.84;7310268;19;151748;-40
2022/03/25 05:11:54;;;;;;;38.70;5.15;;;;;;;19.14;57.87;100610.66;7312558;19;159495;-38
2022/03/25 05:14:20;;;;;;;20.08;3.80;;;;;;;19.11;58.03;100613.47;7313923;19;129194;-38
2022/03/25 05:16:52;;;;;;;26.92;4.22;;;;;;;19.11;59.58;100621.28;7314103;19;129275;-36
2022/03/25 05:19:18;;;;;;;31.67;4.25;;;;;;;19.12;58.70;100628.16;7314975;19;130268;-42
2022/03/25 05:21:43;;;;;;;17.92;3.17;;;;;;;19.17;57.62;100613.03;7310479;19;130734;-37
2022/03/25 05:24:09;;;;;;;25.23;4.37;;;;;;;19.06;57.06;100607.69;7312429;19;154534;-44
2022/03/25 05:26:34;;;;;;;23.50;3.83;;;;;;;19.11;58.72;100621.28;7315038;19;131212;-41
2022/03/25 05:29:00;;;;;;;33.00;4.65;;;;;;;19.14;58.03;100631.50;7311157;19;130208;-40
2022/03/25 05:31:25;;;;;;;39.08;5.40;;;;;;;19.13;58.21;100629.00;7310905;19;159128;-38
2022/03/25 05:33:50;;;;;;;56.38;6.68;;;;;;;19.10;58.73;100629.19;7309591;19;154692;-39
2022/03/25 05:36:16;;;;;;;36.22;4.88;;;;;;;19.06;59.01;100636.38;7311168;19;130974;-41
2022/03/25 05:38:41;;;;;;;25.83;3.88;;;;;;;19.06;57.91;100632.91;7307630;19;159043;-42
2022/03/25 05:41:07;;;;;;;19.40;3.63;;;;;;;19.09;58.58;100644.00;7313087;19;130287;-38
2022/03/25 05:43:33;;;;;;;43.58;5.82;;;;;;;19.11;59.19;100643.88;7311995;19;130878;-41
2022/03/25 05:45:58;;;;;;;38.50;5.45;;;;;;;19.13;58.41;100655.91;7310186;19;129675;-41
2022/03/25 05:48:23;;;;;;;31.67;4.63;;;;;;;19.12;59.03;100654.22;7307574;19;130709;-41
2022/03/25 05:50:51;;;;;;;25.38;3.53;;;;;;;19.09;59.12;100654.41;7308286;19;130293;-39
2022/03/25 05:53:16;;;;;;;22.10;3.50;;;;;;;19.16;58.39;100660.91;7312497;19;129541;-36
2022/03/25 05:55:41;;;;;;;28.90;4.05;;;;;;;19.15;58.51;100659.25;7310793;19;131155;-35
2022/03/25 05:58:07;;;;;;;35.57;4.77;;;;;;;19.16;57.93;100660.91;7308308;19;158573;-42
2022/03/25 06:00:32;;;;;;;28.67;4.38;;;;;;;19.13;58.69;100663.72;7312316;19;130570;-40
2022/03/25 06:02:57;;;;;;;48.65;6.22;;;;;;;19.15;58.60;100668.84;7291405;19;130753;-40
2022/03/25 06:05:24;;;;;;;52.50;6.40;;;;;;;19.05;57.63;100645.13;7301480;19;154213;-37
2022/03/25 06:07:50;;;;;;;26.20;4.10;;;;;;;19.17;58.46;100667.78;7308029;19;130740;-39
2022/03/25 06:10:15;;;;;;;37.97;4.63;;;;;;;19.15;58.57;100664.47;7310315;19;130083;-33
2022/03/25 06:12:41;;;;;;;7.78;2.65;;;;;;;19.14;57.89;100675.81;7312227;19;129166;-36
2022/03/25 06:15:08;;;;;;;35.72;4.95;;;;;;;19.15;58.96;100674.91;7311999;19;129437;-37
2022/03/25 06:17:40;;;;;;;;;;;;;;;19.21;59.29;100674.50;7310767;19;130283;-36
2022/03/25 06:20:07;;;;;;;27.90;4.18;;;;;;;19.18;57.85;100669.47;7312081;19;129376;-36
2022/03/25 06:22:33;;;;;;;26.35;4.40;;;;;;;19.16;57.66;100671.34;7312356;19;129143;-35
2022/03/25 06:24:58;;;;;;;30.80;4.22;;;;;;;19.19;57.69;100675.50;7311815;19;129739;-35
2022/03/25 06:27:24;;;;;;;30.52;4.35;;;;;;;19.16;57.95;100673.94;7311831;19;130268;-41
2022/03/25 06:29:49;;;;;;;35.53;4.75;;;;;;;19.15;58.86;100672.28;7309343;19;148572;-38
2022/03/25 06:32:14;;;;;;;31.40;4.50;;;;;;;19.14;58.96;100673.19;7311425;19;154491;-35
2022/03/25 06:34:39;;;;;;;21.67;3.43;;;;;;;19.20;58.41;100672.84;7311284;19;150462;-34
2022/03/25 06:37:05;;;;;;;28.00;4.07;;;;;;;19.18;58.48;100674.69;7306386;19;155873;-39
2022/03/25 06:39:31;;;;;;;21.73;4.00;;;;;;;19.18;58.11;100664.25;7312107;19;129209;-39
2022/03/25 06:41:56;;;;;;;35.22;4.68;;;;;;;19.19;57.87;100665.06;7311035;19;150515;-40
2022/03/25 06:44:22;;;;;;;42.17;5.18;;;;;;;19.19;57.74;100665.94;7310376;19;139092;-38
2022/03/25 06:46:47;;;;;;;26.42;3.78;;;;;;;19.10;58.37;100658.72;7312105;19;129582;-34
2022/03/25 06:49:13;;;;;;;18.15;3.30;;;;;;;19.19;58.35;100676.34;7302532;19;159407;-30
2022/03/25 06:51:39;;;;;;;20.57;3.40;;;;;;;19.18;57.65;100673.84;7310742;19;131200;-40
2022/03/25 06:54:05;;;;;;;46.47;5.50;;;;;;;19.12;58.59;100669.84;7310038;19;130287;-39
2022/03/25 06:56:34;;;;;;;32.63;4.50;;;;;;;19.16;58.32;100684.38;7310718;19;130459;-43
2022/03/25 06:59:00;;;;;;;39.95;4.90;;;;;;;19.14;58.68;100673.19;7308995;19;130768;-40
2022/03/25 07:01:25;;;;;;;31.45;4.72;;;;;;;19.16;58.80;100681.78;7310601;19;129332;-36
2022/03/25 07:03:51;;;;;;;23.95;4.03;;;;;;;19.18;57.98;100679.06;7309351;19;130815;-35
2022/03/25 07:06:23;;;;;;;29.75;4.03;;;;;;;19.16;59.35;100679.16;7309866;19;130301;-44
2022/03/25 07:08:55;;;;;;;28.23;3.70;;;;;;;19.19;57.79;100681.56;7307395;19;130319;-35
2022/03/25 07:11:21;;;;;;;31.65;4.35;;;;;;;19.17;58.57;100688.63;7311136;19;129204;-36
2022/03/25 07:13:47;;;;;;;12.55;2.97;;;;;;;19.17;58.32;100688.63;7310398;19;129367;-39
2022/03/25 07:16:12;;;;;;;27.88;3.92;;;;;;;19.17;58.33;100686.03;7305835;19;130510;-39
2022/03/25 07:18:37;;;;;;;18.27;3.67;;;;;;;19.18;58.46;100692.09;7305432;19;134875;-40
2022/03/25 07:21:04;;;;;;;29.70;4.20;;;;;;;19.17;57.71;100686.03;7308274;19;151915;-36
2022/03/25 07:23:29;;;;;;;49.20;6.43;;;;;;;19.15;58.39;100690.53;7304988;19;129272;-33
2022/03/25 07:25:55;;;;;;;26.58;4.03;;;;;;;19.19;58.00;100689.38;7308083;19;130216;-35
2022/03/25 07:28:20;;;;;;;35.67;4.75;;;;;;;19.19;58.74;100689.38;7306362;19;135501;-39
2022/03/25 07:30:45;;;;;;;24.05;3.55;;;;;;;19.14;58.80;100694.06;7306239;19;154814;-36
2022/03/25 07:33:11;;;;;;;23.45;3.83;;;;;;;19.21;57.98;100699.72;7311463;19;129349;-40
2022/03/25 07:35:36;;;;;;;19.25;3.63;;;;;;;19.18;58.11;100703.38;7307523;19;129566;-39
2022/03/25 07:38:02;;;;;;;24.23;3.67;;;;;;;19.16;58.18;100704.38;7306774;19;158695;-35
2022/03/25 07:40:27;;;;;;;30.85;4.22;;;;;;;19.03;58.72;100686.09;7309091;19;129637;-38
2022/03/25 07:42:52;;;;;;;40.77;4.73;;;;;;;19.16;58.09;100707.00;7307358;19;146902;-43
2022/03/25 07:45:17;;;;;;;35.47;4.60;;;;;;;19.17;58.12;100706.06;7308033;19;130725;-35
2022/03/25 07:47:45;;;;;;;26.85;3.80;;;;;;;19.15;59.11;100702.72;7307333;19;144334;-38
2022/03/25 07:50:12;;;;;;;16.58;2.95;;;;;;;19.17;58.06;100713.91;7308262;19;128970;-32
2022/03/25 07:52:37;;;;;;;;;;;;;;;19.19;59.73;100712.84;7310048;19;129128;-39
2022/03/25 07:55:03;;;;;;;31.43;4.43;;;;;;;19.17;57.86;100712.09;7308906;19;129180;-37
2022/03/25 07:57:29;;;;;;;34.35;4.78;;;;;;;19.14;58.46;100711.44;7307927;19;130309;-44
2022/03/25 07:59:54;;;;;;;30.13;4.05;;;;;;;19.15;58.67;100714.00;7310718;19;130526;-39
2022/03/25 08:02:19;;;;;;;31.93;4.30;;;;;;;19.12;58.03;100716.75;7300365;19;154363;-39
2022/03/25 08:04:44;;;;;;;37.85;4.60;;;;;;;19.17;58.27;100714.72;7316640;19;130225;-36
2022/03/25 08:07:10;;;;;;;26.83;3.83;;;;;;;19.16;58.61;100718.25;7315624;19;159862;-39
2022/03/25 08:09:35;;;;;;;17.15;3.20;;;;;;;19.17;58.02;100724.31;7314395;19;148539;-39
2022/03/25 08:12:01;;;;;;;31.27;4.33;;;;;;;19.14;59.16;100722.72;7316106;19;153692;-41
2022/03/25 08:14:26;;;;;;;60.55;7.03;;;;;;;19.15;58.97;100716.59;7314155;19;130055;-38
2022/03/25 08:16:51;;;;;;;17.33;3.10;;;;;;;19.16;59.04;100723.47;7316159;19;158272;-42
2022/03/25 08:19:16;;;;;;;74.10;8.25;;;;;;;19.15;58.23;100721.81;7313373;19;129073;-39
2022/03/25 08:21:42;;;;;;;36.10;4.60;;;;;;;19.14;58.31;100730.53;7312104;19;129343;-36
2022/03/25 08:27:52;;;;;;;32.42;4.28;;;;;;;19.06;58.43;100717.16;7317419;19;129463;-37
2022/03/25 08:29:46;;;;;;;36.10;4.63;;;;;;;19.18;58.47;100732.03;7311007;19;129512;-36
2022/03/25 08:32:11;;;;;;;24.77;3.85;;;;;;;19.16;57.82;100736.50;7316111;19;129331;-37
2022/03/25 08:34:37;;;;;;;22.23;3.53;;;;;;;19.17;58.68;100727.75;7312508;19;158275;-39
2022/03/25 08:37:02;;;;;;;30.88;4.22;;;;;;;19.18;58.03;100736.41;7313313;19;154279;-43
2022/03/25 08:39:27;;;;;;;31.77;4.07;;;;;;;19.18;57.68;100739.00;7315153;19;129291;-32
2022/03/25 08:41:53;;;;;;;38.05;5.05;;;;;;;19.17;58.33;100727.75;7314539;19;154672;-37
2022/03/25 08:44:18;;;;;;;25.15;3.60;;;;;;;19.19;58.29;100735.47;7313015;19;156637;-42
2022/03/25 08:46:43;;;;;;;17.58;2.90;;;;;;;19.18;58.11;100729.44;7314453;19;151976;-36
2022/03/25 08:49:10;;;;;;;23.88;3.67;;;;;;;19.17;59.00;100732.13;7312079;19;148530;-40
2022/03/25 08:51:35;;;;;;;26.87;3.93;;;;;;;19.18;58.20;100723.38;7315869;19;129467;-35
2022/03/25 08:54:00;;;;;;;32.88;4.72;;;;;;;19.12;58.15;100731.59;7315137;19;130261;-32
2022/03/25 08:56:27;;;;;;;12.67;2.67;;;;;;;19.15;59.02;100737.44;7313151;19;157410;-36
2022/03/25 08:58:54;;;;;;;22.77;3.03;;;;;;;19.17;57.62;100740.78;7313384;19;129148;-40
2022/03/25 09:01:20;;;;;;;34.80;4.55;;;;;;;19.09;57.78;100721.34;7316951;19;129416;-38
2022/03/25 09:03:46;;;;;;;17.65;3.10;;;;;;;19.19;58.12;100738.91;7316197;19;130410;-37
2022/03/25 09:06:12;;;;;;;25.27;3.90;;;;;;;19.18;58.37;100739.00;7314927;19;129888;-35
2022/03/25 09:08:37;;;;;;;23.80;3.37;;;;;;;19.15;58.91;100734.84;7314219;19;130581;-39
2022/03/25 09:11:03;;;;;;;26.17;3.75;;;;;;;19.13;58.69;100734.09;7314073;19;129039;-41
2022/03/25 09:13:29;;;;;;;30.45;4.20;;;;;;;19.15;57.80;100737.44;7315240;19;130593;-39
2022/03/25 09:15:54;;;;;;;29.95;3.83;;;;;;;19.14;58.41;100730.53;7314434;19;129254;-36
2022/03/25 09:18:19;;;;;;;27.63;3.67;;;;;;;19.16;58.92;100740.88;7312639;19;129219;-42
2022/03/25 09:20:45;;;;;;;22.63;3.22;;;;;;;19.16;58.22;100739.13;7311396;19;153967;-40
2022/03/25 09:23:10;;;;;;;34.85;4.78;;;;;;;19.08;58.08;100719.66;7314166;19;130571;-40
2022/03/25 09:25:36;;;;;;;39.00;4.90;;;;;;;19.16;58.18;100731.28;7311390;19;130308;-34
2022/03/25 09:28:01;;;;;;;31.27;4.27;;;;;;;19.18;57.84;100741.63;7311979;19;154493;-36
2022/03/25 09:30:27;;;;;;;51.25;6.00;;;;;;;19.18;57.80;100741.63;7310999;19;129275;-39
2022/03/25 09:32:52;;;;;;;25.50;3.60;;;;;;;19.13;59.54;100734.09;7313312;19;129596;-37
2022/03/25 09:35:17;;;;;;;38.70;4.93;;;;;;;19.17;58.46;100737.34;7313432;19;130087;-34
2022/03/25 09:37:45;;;;;;;27.92;3.92;;;;;;;19.16;58.53;100739.13;7310948;19;130375;-38
2022/03/25 09:40:14;;;;;;;19.40;3.13;;;;;;;19.14;57.80;100740.97;7315222;19;129468;-37
2022/03/25 09:42:40;;;;;;;26.20;3.80;;;;;;;19.03;58.62;100726.94;7315209;19;129521;-34
2022/03/25 09:45:07;;;;;;;28.63;3.80;;;;;;;19.08;58.28;100719.66;7313680;19;129474;-37
2022/03/25 09:47:33;;;;;;;27.60;3.78;;;;;;;19.16;58.51;100741.72;7313851;19;129162;-40
2022/03/25 09:49:59;;;;;;;36.17;4.55;;;;;;;19.16;59.06;100740.88;7313251;19;129303;-37
2022/03/25 09:52:29;;;;;;;24.10;3.47;;;;;;;19.18;58.77;100744.22;7314817;19;130430;-40
2022/03/25 09:54:54;;;;;;;87.82;9.52;;;;;;;19.15;58.34;100742.66;7308822;19;131509;-40
2022/03/25 09:57:20;;;;;;;26.40;3.53;;;;;;;19.18;58.56;100742.47;7310971;19;128939;-37
2022/03/25 09:59:45;;;;;;;15.57;2.83;;;;;;;19.14;58.25;100746.19;7309766;19;151028;-42
2022/03/25 10:02:10;;;;;;;27.33;3.38;;;;;;;19.14;58.55;100740.97;7313105;19;131824;-32
2022/03/25 10:04:41;;;;;;;31.52;4.32;;;;;;;19.13;58.44;100734.09;7310434;19;159104;-39
2022/03/25 10:07:21;;;;;;;34.25;4.22;;;;;;;19.15;58.95;100737.44;7311646;19;130702;-42
2022/03/25 10:10:04;;;;;;;25.02;3.38;;;;;;;19.12;59.55;100732.41;7312246;19;129223;-40
2022/03/25 10:12:30;;;;;;;32.10;4.15;;;;;;;19.12;57.89;100735.00;7313271;19;131615;-40
2022/03/25 10:15:14;;;;;;;29.27;3.83;;;;;;;19.15;59.96;100731.41;7312102;19;130434;-42
2022/03/25 10:18:16;;;;;;;20.25;3.05;;;;;;;19.14;58.72;100727.94;7313539;19;129048;-41
2022/03/25 10:20:43;;;;;;;30.65;4.13;;;;;;;19.13;58.46;100734.09;7305204;19;130669;-40
2022/03/25 10:23:11;;;;;;;29.05;3.97;;;;;;;19.14;58.32;100735.75;7312255;19;131276;-37
2022/03/25 10:25:55;;;;;;;67.20;7.80;;;;;;;19.13;59.40;100736.72;7305783;19;130864;-36
2022/03/25 10:28:27;;;;;;;78.80;8.27;;;;;;;19.12;59.35;100732.41;7306958;19;129253;-41
2022/03/25 10:30:56;;;;;;;22.17;2.92;;;;;;;19.15;58.21;100732.25;7311017;19;129082;-39
2022/03/25 10:33:25;;;;;;;26.25;3.53;;;;;;;19.12;58.42;100735.00;7311760;19;129440;-41
2022/03/25 10:36:08;;;;;;;29.30;3.92;;;;;;;19.18;59.45;100739.88;7310047;19;131242;-36
2022/03/25 10:38:42;;;;;;;43.58;4.93;;;;;;;19.07;59.40;100716.22;7309142;19;130304;-43
2022/03/25 10:41:09;;;;;;;20.15;3.00;;;;;;;19.18;58.21;100729.44;7311646;19;129593;-38
2022/03/25 10:43:45;;;;;;;18.65;3.45;;;;;;;19.13;59.22;100730.66;7311526;19;130889;-37
2022/03/25 10:46:26;;;;;;;22.67;3.03;;;;;;;19.14;59.75;100732.31;7311671;19;130507;-41
2022/03/25 10:48:53;;;;;;;33.30;4.28;;;;;;;19.05;57.96;100710.28;7309522;19;129719;-43
2022/03/25 10:51:18;;;;;;;;;;;;;;;19.18;59.02;100732.03;7312000;19;129448;-41
2022/03/25 10:53:47;;;;;;;8.30;2.27;;;;;;;19.16;57.81;100733.91;7312597;19;131155;-41
2022/03/25 10:56:12;;;;;;;32.75;4.07;;;;;;;19.05;58.64;100710.28;7312040;19;130590;-38
2022/03/25 10:58:38;;;;;;;18.10;2.88;;;;;;;19.14;58.86;100721.88;7309855;19;129176;-39
2022/03/25 11:01:07;;;;;;;38.65;4.70;;;;;;;19.11;58.58;100720.31;7307353;19;132233;-42
2022/03/25 11:03:32;;;;;;;28.05;3.80;;;;;;;19.09;58.55;100722.19;7308034;19;129306;-45
2022/03/25 11:05:58;;;;;;;33.42;4.05;;;;;;;19.16;58.41;100726.09;7309414;19;129816;-41
2022/03/25 11:08:23;;;;;;;29.52;3.78;;;;;;;19.14;58.10;100725.34;7310789;19;129457;-41